createdAt,value
2019-04-23T00:02:26.549Z,64.00
2019-04-23T00:04:54.200Z,63.80
2019-04-23T00:10:06.543Z,64.10
2019-04-23T00:15:09.244Z,64.70
2019-04-23T00:20:09.586Z,64.90
2019-04-23T00:22:44.987Z,64.70
2019-04-23T00:25:41.586Z,65.50
2019-04-23T00:27:50.297Z,64.60
2019-04-23T00:30:27.523Z,64.30
2019-04-23T00:32:51.582Z,64.60
2019-04-23T00:35:22.630Z,64.70
2019-04-23T00:38:13.091Z,64.30
2019-04-23T00:40:39.076Z,64.60
2019-04-23T00:43:15.443Z,65.00
2019-04-23T00:45:47.336Z,64.00
2019-04-23T00:48:19.640Z,65.10
2019-04-23T00:53:17.489Z,65.00
2019-04-23T00:55:49.222Z,65.90
2019-04-23T00:58:32.006Z,65.30
2019-04-23T01:00:54.010Z,65.30
2019-04-23T01:03:29.444Z,64.90
2019-04-23T01:05:52.630Z,64.40
2019-04-23T01:08:26.459Z,64.70
2019-04-23T01:11:16.819Z,65.00
2019-04-23T01:13:41.225Z,65.30
2019-04-23T01:16:05.666Z,65.40
2019-04-23T01:20:56.490Z,65.90
2019-04-23T01:23:37.754Z,65.40
2019-04-23T01:26:21.277Z,65.00
2019-04-23T01:29:03.418Z,65.10
2019-04-23T01:31:28.561Z,64.50
2019-04-23T01:34:10.793Z,65.00
2019-04-23T01:36:33.080Z,64.70
2019-04-23T01:39:06.434Z,64.60
2019-04-23T01:41:45.146Z,65.00
2019-04-23T01:44:14.423Z,64.90
2019-04-23T01:46:45.862Z,65.20
2019-04-23T01:49:15.884Z,65.80
2019-04-23T01:51:46.769Z,65.10
2019-04-23T01:54:23.621Z,64.00
2019-04-23T01:56:40.093Z,63.50
2019-04-23T01:59:19.268Z,63.50
2019-04-23T02:01:51.893Z,63.20
2019-04-23T02:04:24.402Z,62.40
2019-04-23T02:06:53.727Z,62.30
2019-04-23T02:09:25.522Z,62.80
2019-04-23T02:11:57.930Z,62.70
2019-04-23T02:14:37.864Z,63.10
2019-04-23T02:17:00.200Z,62.90
2019-04-23T02:19:38.511Z,61.00
2019-04-23T02:22:12.935Z,61.40
2019-04-23T02:24:51.169Z,61.00
2019-04-23T02:27:19.343Z,61.50
2019-04-23T02:32:31.826Z,60.40
2019-04-23T02:37:40.882Z,61.70
2019-04-23T02:40:08.751Z,61.90
2019-04-23T02:42:49.945Z,62.00
2019-04-23T02:45:02.622Z,61.10
2019-04-23T02:55:15.545Z,59.40
2019-04-23T02:57:38.909Z,59.80
2019-04-23T03:00:35.953Z,59.30
2019-04-23T03:03:00.620Z,59.40
2019-04-23T03:05:18.877Z,59.10
2019-04-23T03:10:16.419Z,59.20
2019-04-23T03:12:48.978Z,59.40
2019-04-23T03:23:42.709Z,58.20
2019-04-23T03:26:19.957Z,58.40
2019-04-23T03:28:51.821Z,58.70
2019-04-23T03:38:48.255Z,59.20
2019-04-23T03:46:23.627Z,58.50
2019-04-23T03:48:52.942Z,58.30
2019-04-23T03:51:28.718Z,58.30
2019-04-23T03:54:04.005Z,58.30
2019-04-23T04:01:30.294Z,59.10
2019-04-23T04:06:43.165Z,59.30
2019-04-23T04:11:25.779Z,59.30
2019-04-23T04:14:30.109Z,59.30
2019-04-23T04:16:43.313Z,59.50
2019-04-23T04:21:39.838Z,59.20
2019-04-23T04:26:55.948Z,59.30
2019-04-23T04:31:48.829Z,59.50
2019-04-23T04:34:41.732Z,59.80
2019-04-23T04:37:16.502Z,60.40
2019-04-23T04:39:43.140Z,60.70
2019-04-23T04:41:58.129Z,61.20
2019-04-23T04:49:36.912Z,62.90
2019-04-23T04:54:22.615Z,63.40
2019-04-23T04:57:12.909Z,63.70
2019-04-23T04:59:35.141Z,63.80
2019-04-23T05:02:14.376Z,63.70
2019-04-23T05:04:54.260Z,63.60
2019-04-23T05:07:08.771Z,63.90
2019-04-23T05:12:19.053Z,63.50
2019-04-23T05:14:52.578Z,63.40
2019-04-23T05:17:32.501Z,62.60
2019-04-23T05:19:58.931Z,63.50
2019-04-23T05:22:31.224Z,62.60
2019-04-23T05:24:51.343Z,63.20
2019-04-23T05:27:42.613Z,62.80
2019-04-23T05:30:09.770Z,63.00
2019-04-23T05:32:39.133Z,62.60
2019-04-23T05:35:03.261Z,63.20
2019-04-23T05:37:54.187Z,63.10
2019-04-23T05:40:20.899Z,62.80
2019-04-23T05:42:40.165Z,62.70
2019-04-23T05:45:08.455Z,62.00
2019-04-23T05:47:44.523Z,61.40
2019-04-23T05:50:21.316Z,61.30
2019-04-23T05:52:50.594Z,61.40
2019-04-23T05:55:13.276Z,61.30
2019-04-23T05:57:42.714Z,61.30
2019-04-23T06:00:23.679Z,61.10
2019-04-23T06:03:00.762Z,61.30
2019-04-23T06:05:48.066Z,61.20
2019-04-23T06:08:20.225Z,60.90
2019-04-23T06:10:49.696Z,60.90
2019-04-23T06:13:18.609Z,61.10
2019-04-23T06:16:04.768Z,61.40
2019-04-23T06:18:24.762Z,61.60
2019-04-23T06:23:33.079Z,61.60
2019-04-23T06:28:27.618Z,62.70
2019-04-23T06:31:02.345Z,63.60
2019-04-23T06:33:32.244Z,65.70
2019-04-23T06:36:10.629Z,66.90
2019-04-23T06:38:53.798Z,66.90
2019-04-23T06:41:08.894Z,67.90
2019-04-23T06:44:00.529Z,68.50
2019-04-23T06:46:28.946Z,67.30
2019-04-23T06:48:57.430Z,68.80
2019-04-23T06:51:37.714Z,69.20
2019-04-23T06:53:56.743Z,69.50
2019-04-23T06:56:37.480Z,69.00
2019-04-23T06:59:07.594Z,69.30
2019-04-23T07:01:44.898Z,69.10
2019-04-23T07:04:15.059Z,69.60
2019-04-23T07:07:19.162Z,69.20
2019-04-23T07:11:39.004Z,69.30
2019-04-23T07:14:28.774Z,69.00
2019-04-23T07:16:46.296Z,70.20
2019-04-23T07:19:27.280Z,70.60
2019-04-23T07:21:53.530Z,69.60
2019-04-23T07:24:26.386Z,69.90
2019-04-23T07:26:49.360Z,69.30
2019-04-23T07:29:25.738Z,70.00
2019-04-23T07:32:03.537Z,70.40
2019-04-23T07:34:32.015Z,70.30
2019-04-23T07:40:07.657Z,69.40
2019-04-23T07:50:44.175Z,68.80
2019-04-23T07:55:48.146Z,69.90
2019-04-23T07:58:22.113Z,68.70
2019-04-23T08:01:01.955Z,67.30
2019-04-23T08:03:22.533Z,66.30
2019-04-23T08:05:42.446Z,66.40
2019-04-23T08:08:16.818Z,67.30
2019-04-23T08:11:30.716Z,68.30
2019-04-23T08:13:47.356Z,67.90
2019-04-23T08:16:25.988Z,65.40
2019-04-23T08:18:49.512Z,66.00
2019-04-23T08:24:06.583Z,65.40
2019-04-23T08:26:48.458Z,64.80
2019-04-23T08:29:30.272Z,66.00
2019-04-23T08:32:12.125Z,65.00
2019-04-23T08:34:58.751Z,64.40
2019-04-23T08:39:43.534Z,63.70
2019-04-23T08:45:03.142Z,63.40
2019-04-23T08:47:37.273Z,62.90
2019-04-23T08:50:05.889Z,62.50
2019-04-23T08:52:34.664Z,62.00
2019-04-23T08:55:10.167Z,61.60
2019-04-23T08:57:39.791Z,61.90
2019-04-23T09:00:09.022Z,61.20
2019-04-23T09:02:41.073Z,61.90
2019-04-23T09:05:18.103Z,61.40
2019-04-23T09:07:53.870Z,61.50
2019-04-23T09:10:19.719Z,62.00
2019-04-23T09:12:53.793Z,62.70
2019-04-23T09:15:30.181Z,61.20
2019-04-23T09:17:56.276Z,61.50
2019-04-23T09:23:01.895Z,61.10
2019-04-23T09:25:36.687Z,62.00
2019-04-23T09:27:59.736Z,62.90
2019-04-23T09:30:35.458Z,64.20
2019-04-23T09:33:23.995Z,64.20
2019-04-23T09:35:59.735Z,64.50
2019-04-23T09:38:38.357Z,63.00
2019-04-23T09:47:10.598Z,61.80
2019-04-23T09:49:33.328Z,60.90
2019-04-23T09:52:11.146Z,60.60
2019-04-23T09:54:56.122Z,59.40
2019-04-23T09:57:24.456Z,59.60
2019-04-23T10:00:03.291Z,60.00
2019-04-23T10:02:22.265Z,59.80
2019-04-23T10:04:50.604Z,58.90
2019-04-23T10:07:16.462Z,58.30
2019-04-23T10:09:38.024Z,58.10
2019-04-23T10:12:09.442Z,57.40
2019-04-23T10:14:51.271Z,57.80
2019-04-23T10:17:11.123Z,57.80
2019-04-23T10:19:42.598Z,57.60
2019-04-23T10:22:13.299Z,58.30
2019-04-23T10:24:44.196Z,59.60
2019-04-23T10:27:16.898Z,61.00
2019-04-23T10:29:47.839Z,61.00
2019-04-23T10:32:19.848Z,62.10
2019-04-23T10:35:03.498Z,64.20
2019-04-23T10:37:35.682Z,64.20
2019-04-23T10:39:58.247Z,66.20
2019-04-23T10:42:25.646Z,67.10
2019-04-23T10:45:10.860Z,66.10
2019-04-23T10:48:26.593Z,66.30
2019-04-23T10:51:08.374Z,65.30
2019-04-23T10:53:38.305Z,66.60
2019-04-23T10:56:11.061Z,66.90
2019-04-23T10:58:39.912Z,67.70
2019-04-23T11:01:18.693Z,66.40
2019-04-23T11:03:56.993Z,65.60
2019-04-23T11:06:23.421Z,66.10
2019-04-23T11:08:49.891Z,66.30
2019-04-23T11:11:24.028Z,66.80
2019-04-23T11:14:04.575Z,67.50
2019-04-23T11:21:38.428Z,68.10
2019-04-23T11:24:19.021Z,69.90
2019-04-23T11:26:44.258Z,69.60
2019-04-23T11:29:29.787Z,68.40
2019-04-23T11:31:52.923Z,68.40
2019-04-23T11:37:12.425Z,68.60
2019-04-23T11:39:31.171Z,67.40
2019-04-23T11:42:06.757Z,67.30
2019-04-23T11:44:47.212Z,65.80
2019-04-23T11:52:19.370Z,66.60
2019-04-23T11:54:39.366Z,67.80
2019-04-23T11:59:51.962Z,68.20
2019-04-23T12:02:35.556Z,68.60
2019-04-23T12:05:17.207Z,69.10
2019-04-23T12:07:39.479Z,69.70
2019-04-23T12:10:29.242Z,68.80
2019-04-23T12:12:44.631Z,68.70
2019-04-23T12:15:25.390Z,68.60
2019-04-23T12:17:52.410Z,68.80
2019-04-23T12:20:29.026Z,68.50
2019-04-23T12:23:08.878Z,69.20
2019-04-23T12:25:32.404Z,68.80
2019-04-23T12:27:53.954Z,69.40
2019-04-23T12:33:03.308Z,69.30
2019-04-23T12:35:45.765Z,68.40
2019-04-23T12:38:13.908Z,68.70
2019-04-23T12:43:17.356Z,68.70
2019-04-23T12:46:13.140Z,68.00
2019-04-23T12:48:23.860Z,68.40
2019-04-23T12:53:29.327Z,66.20
2019-04-23T12:58:26.711Z,65.50
2019-04-23T13:00:46.028Z,65.40
2019-04-23T13:05:50.498Z,65.50
2019-04-23T13:08:40.960Z,66.10
2019-04-23T13:11:01.690Z,66.20
2019-04-23T13:16:05.854Z,67.00
2019-04-23T13:18:39.509Z,68.10
2019-04-23T13:21:19.016Z,69.50
2019-04-23T13:23:42.304Z,69.40
2019-04-23T13:26:17.831Z,69.30
2019-04-23T13:28:45.277Z,69.30
2019-04-23T13:31:10.543Z,69.70
2019-04-23T13:33:43.906Z,70.10
2019-04-23T13:39:07.213Z,71.60
2019-04-23T13:41:21.666Z,72.00
2019-04-23T13:46:23.046Z,72.40
2019-04-23T13:48:58.897Z,72.10
2019-04-23T13:51:26.902Z,72.10
2019-04-23T13:56:36.710Z,72.80
2019-04-23T13:59:19.469Z,73.20
2019-04-23T14:01:35.901Z,72.90
2019-04-23T14:07:34.580Z,73.50
2019-04-23T14:12:32.226Z,74.30
2019-04-23T14:15:04.281Z,74.40
2019-04-23T14:17:59.849Z,74.30
2019-04-23T14:20:07.136Z,74.10
2019-04-23T14:22:59.687Z,74.60
2019-04-23T14:25:07.934Z,73.90
2019-04-23T14:27:33.426Z,74.30
2019-04-23T14:30:30.000Z,74.00
2019-04-23T14:35:18.500Z,73.80
2019-04-23T14:37:53.130Z,73.60
2019-04-23T14:40:22.299Z,73.30
2019-04-23T14:43:06.566Z,73.00
2019-04-23T14:48:19.671Z,72.80
2019-04-23T14:50:48.791Z,73.50
2019-04-23T14:53:33.444Z,73.40
2019-04-23T14:56:04.886Z,72.80
2019-04-23T14:59:07.287Z,73.30
2019-04-23T15:03:55.965Z,72.40
2019-04-23T15:09:16.100Z,72.20
2019-04-23T15:11:46.825Z,71.70
2019-04-23T15:14:05.394Z,71.80
2019-04-23T15:16:39.869Z,72.00
2019-04-23T15:19:37.324Z,73.20
2019-04-23T15:22:04.782Z,72.40
2019-04-23T15:29:22.814Z,71.80
2019-04-23T15:32:14.952Z,71.90
2019-04-23T15:34:30.375Z,71.80
2019-04-23T15:39:42.531Z,71.30
2019-04-23T15:44:42.010Z,71.30
2019-04-23T15:47:21.656Z,71.00
2019-04-23T15:49:51.399Z,71.40
2019-04-23T15:52:39.592Z,71.00
2019-04-23T15:54:51.474Z,70.40
2019-04-23T15:57:41.787Z,69.50
2019-04-23T16:01:55.193Z,68.60
2019-04-23T16:04:25.191Z,69.00
2019-04-23T16:06:55.995Z,69.10
2019-04-23T16:10:04.195Z,69.00
2019-04-23T16:12:27.753Z,68.80
2019-04-23T16:15:02.574Z,68.60
2019-04-23T16:17:28.870Z,68.80
2019-04-23T16:22:36.908Z,67.90
2019-04-23T16:27:46.205Z,67.70
2019-04-23T16:30:25.479Z,68.10
2019-04-23T16:33:02.499Z,67.40
2019-04-23T16:35:46.662Z,67.70
2019-04-23T16:38:10.880Z,67.70
2019-04-23T16:40:34.816Z,67.50
2019-04-23T16:48:35.313Z,68.90
2019-04-23T16:53:20.980Z,68.70
2019-04-23T16:55:56.512Z,69.90
2019-04-23T16:58:36.805Z,70.20
2019-04-23T17:06:07.910Z,70.10
2019-04-23T17:11:10.067Z,70.10
2019-04-23T17:13:37.580Z,70.70
2019-04-23T17:16:16.737Z,69.90
2019-04-23T17:18:38.846Z,69.80
2019-04-23T17:21:13.472Z,69.60
2019-04-23T17:23:49.723Z,69.00
2019-04-23T17:28:49.897Z,68.70
2019-04-23T17:33:52.013Z,68.10
2019-04-23T17:39:18.158Z,68.40
2019-04-23T17:42:22.699Z,68.40
2019-04-23T17:47:35.235Z,68.80
2019-04-23T17:50:56.944Z,68.60
2019-04-23T17:52:56.137Z,68.10
2019-04-23T17:55:13.411Z,67.90
2019-04-23T18:08:01.413Z,67.40
2019-04-23T18:12:51.615Z,66.90
2019-04-23T18:15:15.907Z,67.70
2019-04-23T18:17:54.631Z,68.80
2019-04-23T18:20:28.305Z,69.90
2019-04-23T18:23:06.147Z,70.20
2019-04-23T18:25:37.531Z,70.60
2019-04-23T18:28:08.000Z,70.80
2019-04-23T18:31:06.454Z,71.10
2019-04-23T18:33:58.276Z,70.80
2019-04-23T18:36:02.394Z,70.30
2019-04-23T18:38:53.011Z,70.10
2019-04-23T18:43:44.643Z,70.60
2019-04-23T18:46:18.521Z,70.10
2019-04-23T18:51:33.650Z,69.40
2019-04-23T18:56:33.913Z,69.50
2019-04-23T19:01:36.613Z,68.40
2019-04-23T19:04:29.116Z,67.90
2019-04-23T19:06:36.928Z,68.00
2019-04-23T19:11:59.366Z,67.70
2019-04-23T19:14:56.153Z,67.80
2019-04-23T19:17:08.963Z,68.30
2019-04-23T19:19:28.587Z,68.30
2019-04-23T19:22:16.903Z,68.30
2019-04-23T19:25:03.567Z,69.00
2019-04-23T19:27:37.630Z,68.80
2019-04-23T19:29:47.993Z,69.40
2019-04-23T19:32:14.425Z,70.00
2019-04-23T19:35:19.352Z,70.20
2019-04-23T19:37:39.884Z,69.70
2019-04-23T19:39:58.547Z,69.80
2019-04-23T19:42:36.830Z,69.80
2019-04-23T19:44:58.221Z,69.80
2019-04-23T19:47:55.862Z,68.90
2019-04-23T19:50:04.110Z,68.30
2019-04-23T19:52:54.983Z,68.20
2019-04-23T20:00:13.081Z,68.10
2019-04-23T20:03:01.743Z,68.30
2019-04-23T20:05:13.543Z,68.10
2019-04-23T20:07:54.930Z,68.20
2019-04-23T20:10:12.322Z,68.60
2019-04-23T20:12:54.649Z,68.80
2019-04-23T20:15:27.106Z,68.70
2019-04-23T20:28:20.180Z,68.40
2019-04-23T20:33:55.526Z,69.60
2019-04-23T20:41:15.342Z,70.90
2019-04-23T20:43:42.398Z,71.50
2019-04-23T20:51:04.392Z,74.30
2019-04-23T20:53:47.213Z,74.00
2019-04-23T20:56:28.362Z,74.50
2019-04-23T21:06:39.715Z,74.60
2019-04-23T21:11:40.923Z,74.60
2019-04-23T21:14:22.734Z,75.30
2019-04-23T21:16:48.468Z,75.70
2019-04-23T21:19:10.626Z,75.70
2019-04-23T21:22:02.520Z,75.80
2019-04-23T21:24:27.427Z,76.00
2019-04-23T21:27:01.472Z,75.70
2019-04-23T21:29:37.445Z,75.80
2019-04-23T21:32:06.826Z,75.60
2019-04-23T21:34:38.873Z,75.80
2019-04-23T21:37:06.514Z,75.90
2019-04-23T21:40:04.745Z,76.00
2019-04-23T21:42:32.087Z,75.90
2019-04-23T21:44:52.685Z,76.20
2019-04-23T21:47:40.299Z,75.60
2019-04-23T21:52:33.928Z,75.70
2019-04-23T21:55:04.117Z,75.20
2019-04-23T21:57:44.418Z,75.60
2019-04-23T22:00:07.986Z,75.70
2019-04-23T22:02:48.403Z,75.70
2019-04-23T22:05:09.318Z,75.40
2019-04-23T22:07:51.933Z,75.20
2019-04-23T22:10:11.679Z,75.00
2019-04-23T22:12:56.250Z,75.20
2019-04-23T22:15:13.314Z,75.60
2019-04-23T22:17:54.765Z,75.20
2019-04-23T22:23:08.412Z,74.20
2019-04-23T22:25:27.775Z,73.90
2019-04-23T22:27:54.210Z,74.10
2019-04-23T22:30:30.445Z,73.90
2019-04-23T22:33:07.182Z,73.70
2019-04-23T22:35:35.573Z,73.20
2019-04-23T22:38:18.769Z,73.40
2019-04-23T22:40:36.273Z,73.20
2019-04-23T22:43:17.795Z,73.20
2019-04-23T22:45:43.901Z,73.10
2019-04-23T22:48:11.870Z,73.00
2019-04-23T22:50:47.307Z,72.90
2019-04-23T22:55:57.433Z,72.60
2019-04-23T22:58:11.017Z,72.20
2019-04-23T23:01:02.455Z,72.60
2019-04-23T23:08:56.934Z,72.60
2019-04-23T23:11:08.503Z,73.00
2019-04-23T23:14:07.130Z,72.70
2019-04-23T23:16:14.864Z,72.90
2019-04-23T23:18:49.156Z,72.80
2019-04-23T23:21:20.600Z,72.90
2019-04-23T23:23:56.488Z,72.40
2019-04-23T23:26:26.770Z,73.00
2019-04-23T23:28:58.315Z,72.70
2019-04-23T23:31:46.636Z,73.20
2019-04-23T23:34:02.789Z,72.90
2019-04-23T23:39:06.745Z,72.60
2019-04-23T23:44:28.082Z,72.70
2019-04-23T23:49:11.735Z,73.30
2019-04-23T23:51:44.742Z,73.20
2019-04-23T23:56:50.672Z,73.20
